TAF and METAR

Decoding for American and Canadian METARs and TAFs is not fully implemented.

Could not understand the following METAR

CWEU 250000Z 36007KT 15SM FEW050 BKN074 BKN230 10/M04 A2987 RMK CU1AC5CI1 CU TR CI TR SH SE CC ASOCTD SLP117
No TAF available for Eureka